createdAt,value
2022-12-25T00:01:48.342Z,85.01
2022-12-25T00:04:15.146Z,84.96
2022-12-25T00:06:42.133Z,85.02
2022-12-25T00:09:09.104Z,84.59
2022-12-25T00:11:35.932Z,84.01
2022-12-25T00:14:02.895Z,83.36
2022-12-25T00:16:29.771Z,82.96
2022-12-25T00:18:58.887Z,82.37
2022-12-25T00:21:25.657Z,81.81
2022-12-25T00:23:55.949Z,81.41
2022-12-25T00:26:23.373Z,81.04
2022-12-25T00:28:53.967Z,80.57
2022-12-25T00:31:21.472Z,80.65
2022-12-25T00:33:50.235Z,80.02
2022-12-25T00:36:19.560Z,80.04
2022-12-25T00:38:47.116Z,80.53
2022-12-25T00:41:16.807Z,81.22
2022-12-25T00:43:44.014Z,81.52
2022-12-25T00:46:12.806Z,81.55
2022-12-25T00:48:40.253Z,81.95
2022-12-25T00:51:11.022Z,82.51
2022-12-25T00:53:37.776Z,82.96
2022-12-25T00:56:07.811Z,83.77
2022-12-25T00:58:35.665Z,84.61
2022-12-25T01:01:06.819Z,85.53
2022-12-25T01:03:33.575Z,86.11
2022-12-25T01:06:03.923Z,86.46
2022-12-25T01:08:33.908Z,86.83
2022-12-25T01:11:06.088Z,86.86
2022-12-25T01:13:36.623Z,86.97
2022-12-25T01:16:07.905Z,86.73
2022-12-25T01:18:35.186Z,86.90
2022-12-25T01:21:11.002Z,87.05
2022-12-25T01:23:38.480Z,87.06
2022-12-25T01:26:07.456Z,87.17
2022-12-25T01:28:34.864Z,87.29
2022-12-25T01:31:02.204Z,87.19
2022-12-25T01:33:29.261Z,86.94
2022-12-25T01:35:55.973Z,87.08
2022-12-25T01:38:22.812Z,86.98
2022-12-25T01:40:49.743Z,86.72
2022-12-25T01:43:33.250Z,86.78
2022-12-25T01:46:00.365Z,86.70
2022-12-25T01:48:32.799Z,86.83
2022-12-25T01:51:06.110Z,86.63
2022-12-25T01:53:33.650Z,86.58
2022-12-25T01:56:05.948Z,86.42
2022-12-25T01:58:32.976Z,86.25
2022-12-25T02:00:59.771Z,85.79
2022-12-25T02:03:26.697Z,86.02
2022-12-25T02:05:54.522Z,85.86
2022-12-25T02:08:23.320Z,86.15
2022-12-25T02:10:50.069Z,85.97
2022-12-25T02:13:19.970Z,86.26
2022-12-25T02:15:51.108Z,86.33
2022-12-25T02:18:38.042Z,86.20
2022-12-25T02:21:21.388Z,86.46
2022-12-25T02:24:03.142Z,86.32
2022-12-25T02:27:00.592Z,86.32
2022-12-25T02:29:56.019Z,85.82
2022-12-25T02:32:31.215Z,85.58
2022-12-25T02:35:03.631Z,85.45
2022-12-25T02:37:31.840Z,85.88
2022-12-25T02:40:21.676Z,85.81
2022-12-25T02:43:08.190Z,85.74
2022-12-25T02:45:52.105Z,85.34
2022-12-25T02:48:37.629Z,85.35
2022-12-25T02:51:23.450Z,85.46
2022-12-25T02:54:09.196Z,85.08
2022-12-25T02:56:53.531Z,85.20
2022-12-25T02:59:37.072Z,85.31
2022-12-25T03:02:22.538Z,85.24
2022-12-25T03:05:08.165Z,85.16
2022-12-25T03:07:39.588Z,84.89
2022-12-25T03:10:28.208Z,84.90
2022-12-25T03:12:56.123Z,84.54
2022-12-25T03:15:39.333Z,84.47
2022-12-25T03:18:11.780Z,84.46
2022-12-25T03:20:54.268Z,84.02
2022-12-25T03:23:40.187Z,84.11
2022-12-25T03:26:23.164Z,83.88
2022-12-25T03:28:50.058Z,83.82
2022-12-25T03:31:35.547Z,84.00
2022-12-25T03:34:36.623Z,84.39
2022-12-25T03:37:23.687Z,84.76
2022-12-25T03:39:57.532Z,84.59
2022-12-25T03:42:47.653Z,84.59
2022-12-25T03:45:42.335Z,84.45
2022-12-25T03:48:26.698Z,84.80
2022-12-25T03:51:16.536Z,85.18
2022-12-25T03:54:03.475Z,85.10
2022-12-25T03:56:47.287Z,85.37
2022-12-25T03:59:29.743Z,85.15
2022-12-25T04:02:11.982Z,85.20
2022-12-25T04:04:54.189Z,85.02
2022-12-25T04:07:36.727Z,85.20
2022-12-25T04:10:19.321Z,85.15
2022-12-25T04:13:01.581Z,85.50
2022-12-25T04:15:43.956Z,85.51
2022-12-25T04:18:26.346Z,85.36
2022-12-25T04:21:08.564Z,85.35
2022-12-25T04:23:50.783Z,85.38
2022-12-25T04:26:33.293Z,85.47
2022-12-25T04:29:15.427Z,85.16
2022-12-25T04:31:57.872Z,85.07
2022-12-25T04:34:40.133Z,84.98
2022-12-25T04:37:06.849Z,84.86
2022-12-25T04:39:33.603Z,84.81
2022-12-25T04:42:01.113Z,84.69
2022-12-25T04:44:27.849Z,84.58
2022-12-25T04:46:54.748Z,84.64
2022-12-25T04:49:21.520Z,84.51
2022-12-25T04:51:48.333Z,84.63
2022-12-25T04:54:15.115Z,84.43
2022-12-25T04:56:45.856Z,84.32
2022-12-25T04:59:13.208Z,84.49
2022-12-25T05:01:40.179Z,84.47
2022-12-25T05:04:07.440Z,84.46
2022-12-25T05:06:34.208Z,84.30
2022-12-25T05:09:00.932Z,83.99
2022-12-25T05:11:27.761Z,83.93
2022-12-25T05:13:54.635Z,84.06
2022-12-25T05:16:21.522Z,84.16
2022-12-25T05:18:50.971Z,83.87
2022-12-25T05:21:18.768Z,83.91
2022-12-25T05:23:49.783Z,84.16
2022-12-25T05:26:19.574Z,84.06
2022-12-25T05:28:47.072Z,84.17
2022-12-25T05:31:14.503Z,84.41
2022-12-25T05:33:41.265Z,84.19
2022-12-25T05:36:10.436Z,84.11
2022-12-25T05:38:37.623Z,83.91
2022-12-25T05:41:04.790Z,83.85
2022-12-25T05:43:31.819Z,84.01
2022-12-25T05:46:03.510Z,83.86
2022-12-25T05:48:30.269Z,84.02
2022-12-25T05:50:56.956Z,84.14
2022-12-25T05:53:23.838Z,83.97
2022-12-25T05:55:50.640Z,84.14
2022-12-25T05:58:17.349Z,83.77
2022-12-25T06:00:44.858Z,83.65
2022-12-25T06:03:11.683Z,83.37
2022-12-25T06:05:39.777Z,83.18
2022-12-25T06:08:06.595Z,82.97
2022-12-25T06:10:33.331Z,82.87
2022-12-25T06:13:00.845Z,82.69
2022-12-25T06:15:27.758Z,82.34
2022-12-25T06:17:54.521Z,82.23
2022-12-25T06:20:21.447Z,82.55
2022-12-25T06:22:48.159Z,82.59
2022-12-25T06:25:15.162Z,83.04
2022-12-25T06:27:41.913Z,82.89
2022-12-25T06:30:09.323Z,83.46
2022-12-25T06:32:36.189Z,83.73
2022-12-25T06:35:03.307Z,84.28
2022-12-25T06:37:31.615Z,84.50
2022-12-25T06:39:58.522Z,84.58
2022-12-25T06:42:25.838Z,84.87
2022-12-25T06:44:53.315Z,85.07
2022-12-25T06:47:20.020Z,85.23
2022-12-25T06:49:46.848Z,85.19
2022-12-25T06:52:13.563Z,85.33
2022-12-25T06:54:40.273Z,85.57
2022-12-25T06:57:07.055Z,85.11
2022-12-25T06:59:33.748Z,85.05
2022-12-25T07:02:00.717Z,85.58
2022-12-25T07:04:40.655Z,85.46
2022-12-25T07:07:09.645Z,85.29
2022-12-25T07:09:39.179Z,84.88
2022-12-25T07:12:17.415Z,84.49
2022-12-25T07:14:45.485Z,83.52
2022-12-25T07:17:12.245Z,83.12
2022-12-25T07:19:44.733Z,83.36
2022-12-25T07:22:12.290Z,83.29
2022-12-25T07:24:39.200Z,83.17
2022-12-25T07:27:06.593Z,83.81
2022-12-25T07:29:33.305Z,83.20
2022-12-25T07:32:00.245Z,83.70
2022-12-25T07:34:27.030Z,83.99
2022-12-25T07:36:55.135Z,85.03
2022-12-25T07:39:22.072Z,85.67
2022-12-25T07:41:48.782Z,86.01
2022-12-25T07:44:16.065Z,86.29
2022-12-25T07:46:43.094Z,86.55
2022-12-25T07:49:11.109Z,86.30
2022-12-25T07:51:38.225Z,86.30
2022-12-25T07:54:05.085Z,86.10
2022-12-25T07:56:31.889Z,85.40
2022-12-25T07:58:58.679Z,85.26
2022-12-25T08:01:27.170Z,84.99
2022-12-25T08:03:57.374Z,84.55
2022-12-25T08:06:29.806Z,84.01
2022-12-25T08:09:01.820Z,83.35
2022-12-25T08:11:29.344Z,82.76
2022-12-25T08:13:56.031Z,81.99
2022-12-25T08:16:22.941Z,81.03
2022-12-25T08:18:49.840Z,80.65
2022-12-25T08:21:16.619Z,79.69
2022-12-25T08:23:45.629Z,79.05
2022-12-25T08:26:15.965Z,78.56
2022-12-25T08:28:42.841Z,77.77
2022-12-25T08:31:27.772Z,77.35
2022-12-25T08:33:57.241Z,76.60
2022-12-25T08:36:24.493Z,75.12
2022-12-25T08:38:53.480Z,74.09
2022-12-25T08:41:23.299Z,72.40
2022-12-25T08:43:50.039Z,70.89
2022-12-25T08:46:16.793Z,69.23
2022-12-25T08:48:45.913Z,67.59
2022-12-25T08:51:16.229Z,66.55
2022-12-25T08:53:44.734Z,65.04
2022-12-25T08:56:11.804Z,63.59
2022-12-25T08:58:38.872Z,62.59
2022-12-25T09:01:06.535Z,61.46
2022-12-25T09:03:33.877Z,61.43
2022-12-25T09:06:04.072Z,60.29
2022-12-25T09:08:31.093Z,59.65
2022-12-25T09:11:03.131Z,59.09
2022-12-25T09:13:30.220Z,58.34
2022-12-25T09:15:56.961Z,57.40
2022-12-25T09:18:23.783Z,56.84
2022-12-25T09:21:03.317Z,56.39
2022-12-25T09:23:30.912Z,56.02
2022-12-25T09:25:59.980Z,55.56
2022-12-25T09:28:26.894Z,55.17
2022-12-25T09:30:54.215Z,55.15
2022-12-25T09:33:22.204Z,55.31
2022-12-25T09:35:58.326Z,55.38
2022-12-25T09:38:25.836Z,55.15
2022-12-25T09:41:02.955Z,55.78
2022-12-25T09:43:33.999Z,56.02
2022-12-25T09:46:04.269Z,56.26
2022-12-25T09:48:35.572Z,56.23
2022-12-25T09:51:10.125Z,55.90
2022-12-25T09:53:40.463Z,56.04
2022-12-25T09:56:10.675Z,56.37
2022-12-25T09:58:37.480Z,56.31
2022-12-25T10:01:28.936Z,56.31
2022-12-25T10:04:26.956Z,57.03
2022-12-25T10:07:23.695Z,57.44
2022-12-25T10:10:05.774Z,57.22
2022-12-25T10:12:32.554Z,57.43
2022-12-25T10:14:59.345Z,57.77
2022-12-25T10:17:31.004Z,58.00
2022-12-25T10:20:13.228Z,57.74
2022-12-25T10:22:44.926Z,57.55
2022-12-25T10:25:17.843Z,57.63
2022-12-25T10:27:45.393Z,57.42
2022-12-25T10:30:18.564Z,57.12
2022-12-25T10:32:46.574Z,58.16
2022-12-25T10:35:15.422Z,58.35
2022-12-25T10:37:44.504Z,57.51
2022-12-25T10:40:27.438Z,57.02
2022-12-25T10:43:04.459Z,56.23
2022-12-25T10:45:31.371Z,56.23
2022-12-25T10:48:07.446Z,56.30
2022-12-25T10:50:42.560Z,56.45
2022-12-25T10:53:18.643Z,56.45
2022-12-25T10:56:02.254Z,57.12
2022-12-25T10:58:30.564Z,57.44
2022-12-25T11:01:03.017Z,57.46
2022-12-25T11:03:35.956Z,58.09
2022-12-25T11:06:03.465Z,57.53
2022-12-25T11:08:33.111Z,57.58
2022-12-25T11:11:06.396Z,56.74
2022-12-25T11:13:39.277Z,56.82
2022-12-25T11:16:10.643Z,56.14
2022-12-25T11:18:46.520Z,55.51
2022-12-25T11:21:19.015Z,55.89
2022-12-25T11:23:48.827Z,55.35
2022-12-25T11:26:17.835Z,54.73
2022-12-25T11:28:46.274Z,54.38
2022-12-25T11:31:15.944Z,53.61
2022-12-25T11:33:46.931Z,53.08
2022-12-25T11:36:21.613Z,52.52
2022-12-25T11:38:48.391Z,51.95
2022-12-25T11:41:20.755Z,51.16
2022-12-25T11:43:55.557Z,51.22
2022-12-25T11:49:25.900Z,50.35
2022-12-25T11:51:57.151Z,50.15
2022-12-25T11:54:32.453Z,49.92
2022-12-25T11:57:03.436Z,50.23
2022-12-25T11:59:38.633Z,50.52
2022-12-25T12:02:24.259Z,50.05
2022-12-25T12:05:06.660Z,50.30
2022-12-25T12:07:35.448Z,49.85
2022-12-25T12:10:16.675Z,49.46
2022-12-25T12:12:58.642Z,49.26
2022-12-25T12:15:33.557Z,49.22
2022-12-25T12:18:10.170Z,49.20
2022-12-25T12:20:37.475Z,48.76
2022-12-25T12:23:15.215Z,47.61
2022-12-25T12:25:45.458Z,47.99
2022-12-25T12:28:20.913Z,48.10
2022-12-25T12:30:58.671Z,47.61
2022-12-25T12:33:29.630Z,48.04
2022-12-25T12:35:57.092Z,47.57
2022-12-25T12:38:24.942Z,46.95
2022-12-25T12:40:51.650Z,46.92
2022-12-25T12:43:26.212Z,46.74
2022-12-25T12:46:00.999Z,47.09
2022-12-25T12:48:37.235Z,47.34
2022-12-25T12:51:07.367Z,47.62
2022-12-25T12:53:35.124Z,47.96
2022-12-25T12:56:11.976Z,47.83
2022-12-25T12:58:45.170Z,47.95
2022-12-25T13:01:21.466Z,47.98
2022-12-25T13:04:03.543Z,48.44
2022-12-25T13:06:41.487Z,48.53
2022-12-25T13:09:11.690Z,48.37
2022-12-25T13:11:41.629Z,48.14
2022-12-25T13:14:19.245Z,48.06
2022-12-25T13:16:48.951Z,48.23
2022-12-25T13:19:19.404Z,48.16
2022-12-25T13:22:03.354Z,47.57
2022-12-25T13:24:32.820Z,47.27
2022-12-25T13:27:00.715Z,47.30
2022-12-25T13:29:38.069Z,47.65
2022-12-25T13:32:07.493Z,48.25
2022-12-25T13:34:40.505Z,49.40
2022-12-25T13:37:10.196Z,50.38
2022-12-25T13:39:44.625Z,51.68
2022-12-25T13:42:16.818Z,53.15
2022-12-25T13:44:47.433Z,54.67
2022-12-25T13:47:19.667Z,55.92
2022-12-25T13:49:47.413Z,56.98
2022-12-25T13:52:18.872Z,57.70
2022-12-25T13:54:55.799Z,58.77
2022-12-25T13:57:28.121Z,59.76
2022-12-25T13:59:55.561Z,60.53
2022-12-25T14:02:28.833Z,61.49
2022-12-25T14:04:55.930Z,62.09
2022-12-25T14:07:24.984Z,62.96
2022-12-25T14:09:59.734Z,63.59
2022-12-25T14:12:29.188Z,64.23
2022-12-25T14:14:58.264Z,64.49
2022-12-25T14:17:25.928Z,64.82
2022-12-25T14:20:05.626Z,65.23
2022-12-25T14:22:36.036Z,65.23
2022-12-25T14:25:02.845Z,65.42
2022-12-25T14:27:31.015Z,65.81
2022-12-25T14:30:00.594Z,66.62
2022-12-25T14:32:31.892Z,67.26
2022-12-25T14:35:03.734Z,67.89
2022-12-25T14:37:32.872Z,68.12
2022-12-25T14:40:06.570Z,68.24
2022-12-25T14:42:35.263Z,68.78
2022-12-25T14:45:04.027Z,69.59
2022-12-25T14:47:32.528Z,70.20
2022-12-25T14:49:59.995Z,70.40
2022-12-25T14:52:30.562Z,70.61
2022-12-25T14:55:02.985Z,70.39
2022-12-25T14:57:33.899Z,70.76
2022-12-25T15:00:06.704Z,71.51
2022-12-25T15:02:40.831Z,72.30
2022-12-25T15:05:25.137Z,72.85
2022-12-25T15:08:04.468Z,73.32
2022-12-25T15:10:59.738Z,73.57
2022-12-25T15:13:18.918Z,74.08
2022-12-25T15:15:53.557Z,74.37
2022-12-25T15:18:24.559Z,74.68
2022-12-25T15:20:52.977Z,74.82
2022-12-25T15:23:20.899Z,75.06
2022-12-25T15:25:48.644Z,75.56
2022-12-25T15:28:15.499Z,75.64
2022-12-25T15:30:42.473Z,75.90
2022-12-25T15:33:14.484Z,76.07
2022-12-25T15:35:44.143Z,76.07
2022-12-25T15:38:12.336Z,76.03
2022-12-25T15:40:40.128Z,76.63
2022-12-25T15:43:14.531Z,77.41
2022-12-25T15:45:53.665Z,78.27
2022-12-25T15:48:20.448Z,78.92
2022-12-25T15:50:47.403Z,79.69
2022-12-25T15:53:14.229Z,80.27
2022-12-25T15:55:41.277Z,80.60
2022-12-25T15:58:13.176Z,81.09
2022-12-25T16:00:39.899Z,81.44
2022-12-25T16:03:06.799Z,81.72
2022-12-25T16:05:33.731Z,82.01
2022-12-25T16:08:00.504Z,82.07
2022-12-25T16:10:27.390Z,82.35
2022-12-25T16:12:54.134Z,82.28
2022-12-25T16:15:20.900Z,81.99
2022-12-25T16:17:47.698Z,81.88
2022-12-25T16:20:15.036Z,82.21
2022-12-25T16:22:41.766Z,82.24
2022-12-25T16:25:14.991Z,82.73
2022-12-25T16:27:41.806Z,82.88
2022-12-25T16:30:09.665Z,82.89
2022-12-25T16:32:36.554Z,82.50
2022-12-25T16:35:03.593Z,82.81
2022-12-25T16:37:30.567Z,82.78
2022-12-25T16:39:57.431Z,83.32
2022-12-25T16:42:24.274Z,83.10
2022-12-25T16:44:51.142Z,83.01
2022-12-25T16:47:17.931Z,83.01
2022-12-25T16:49:44.728Z,83.19
2022-12-25T16:52:11.528Z,83.47
2022-12-25T16:54:38.200Z,83.51
2022-12-25T16:57:04.966Z,83.45
2022-12-25T16:59:33.017Z,83.31
2022-12-25T17:01:59.818Z,83.32
2022-12-25T17:04:27.884Z,83.67
2022-12-25T17:06:54.640Z,83.80
2022-12-25T17:09:21.499Z,83.71
2022-12-25T17:11:48.301Z,83.91
2022-12-25T17:14:16.231Z,83.78
2022-12-25T17:16:43.039Z,84.33
2022-12-25T17:19:18.373Z,84.18
2022-12-25T17:21:45.841Z,83.84
2022-12-25T17:24:12.886Z,83.69
2022-12-25T17:26:42.092Z,83.41
2022-12-25T17:29:08.853Z,82.99
2022-12-25T17:31:36.118Z,83.17
2022-12-25T17:34:04.234Z,83.02
2022-12-25T17:36:31.906Z,82.75
2022-12-25T17:39:00.929Z,82.19
2022-12-25T17:41:28.023Z,81.82
2022-12-25T17:43:55.048Z,81.79
2022-12-25T17:46:24.984Z,81.62
2022-12-25T17:48:54.304Z,81.37
2022-12-25T17:51:23.377Z,81.10
2022-12-25T17:53:55.481Z,80.43
2022-12-25T17:56:39.297Z,79.98
2022-12-25T17:59:08.447Z,80.01
2022-12-25T18:01:53.039Z,80.30
2022-12-25T18:04:35.704Z,80.56
2022-12-25T18:07:03.424Z,81.40
2022-12-25T18:09:32.201Z,81.37
2022-12-25T18:12:00.011Z,81.55
2022-12-25T18:14:26.918Z,81.46
2022-12-25T18:16:53.943Z,81.57
2022-12-25T18:19:20.801Z,81.72
2022-12-25T18:21:47.688Z,81.66
2022-12-25T18:24:15.768Z,81.62
2022-12-25T18:26:42.583Z,81.65
2022-12-25T18:29:26.077Z,81.79
2022-12-25T18:31:52.869Z,81.67
2022-12-25T18:34:36.771Z,81.60
2022-12-25T18:37:03.782Z,81.35
2022-12-25T18:39:32.011Z,81.29
2022-12-25T18:42:14.984Z,81.38
2022-12-25T18:44:41.848Z,81.63
2022-12-25T18:47:08.620Z,81.69
2022-12-25T18:49:36.892Z,81.95
2022-12-25T18:52:48.824Z,81.92
2022-12-25T18:54:52.479Z,81.97
2022-12-25T18:57:19.530Z,81.74
2022-12-25T18:59:47.471Z,81.31
2022-12-25T19:02:15.359Z,81.30
2022-12-25T19:04:50.689Z,81.17
2022-12-25T19:07:17.451Z,81.14
2022-12-25T19:09:44.793Z,81.56
2022-12-25T19:12:27.254Z,81.82
2022-12-25T19:14:54.025Z,81.85
2022-12-25T19:17:22.552Z,81.75
2022-12-25T19:19:51.055Z,81.54
2022-12-25T19:22:17.792Z,81.37
2022-12-25T19:25:00.153Z,81.54
2022-12-25T19:27:27.212Z,81.39
2022-12-25T19:29:54.714Z,81.86
2022-12-25T19:32:24.236Z,81.58
2022-12-25T19:35:07.072Z,81.97
2022-12-25T19:37:34.824Z,81.83
2022-12-25T19:40:01.874Z,81.69
2022-12-25T19:42:28.630Z,81.58
2022-12-25T19:44:55.941Z,81.26
2022-12-25T19:47:22.830Z,81.48
2022-12-25T19:49:53.227Z,81.42
2022-12-25T19:52:20.596Z,81.73
2022-12-25T19:54:51.663Z,81.98
2022-12-25T19:57:18.699Z,82.32
2022-12-25T19:59:45.426Z,82.92
2022-12-25T20:02:12.653Z,83.04
2022-12-25T20:04:39.535Z,83.13
2022-12-25T20:07:06.470Z,82.47
2022-12-25T20:09:33.313Z,82.48
2022-12-25T20:12:00.110Z,82.41
2022-12-25T20:14:26.852Z,82.39
2022-12-25T20:16:53.969Z,82.14
2022-12-25T20:19:21.541Z,82.05
2022-12-25T20:21:48.530Z,81.87
2022-12-25T20:24:16.086Z,82.02
2022-12-25T20:26:46.442Z,82.08
2022-12-25T20:29:15.072Z,81.80
2022-12-25T20:31:42.134Z,82.14
2022-12-25T20:34:12.063Z,82.24
2022-12-25T20:36:39.278Z,82.28
2022-12-25T20:39:09.826Z,82.16
2022-12-25T20:41:38.049Z,82.40
2022-12-25T20:44:06.589Z,82.54
2022-12-25T20:46:33.666Z,82.37
2022-12-25T20:49:04.317Z,82.45
2022-12-25T20:51:31.064Z,82.44
2022-12-25T20:53:58.140Z,82.58
2022-12-25T20:56:26.433Z,82.44
2022-12-25T20:58:55.174Z,82.61
2022-12-25T21:01:22.588Z,82.51
2022-12-25T21:03:51.192Z,82.55
2022-12-25T21:06:18.027Z,83.34
2022-12-25T21:08:44.816Z,83.58
2022-12-25T21:11:13.088Z,83.62
2022-12-25T21:13:42.435Z,83.58
2022-12-25T21:16:13.899Z,83.57
2022-12-25T21:18:40.745Z,82.90
2022-12-25T21:21:10.570Z,83.01
2022-12-25T21:23:39.180Z,82.56
2022-12-25T21:26:19.470Z,82.00
2022-12-25T21:28:48.300Z,82.10
2022-12-25T21:31:15.244Z,82.01
2022-12-25T21:33:57.599Z,82.72
2022-12-25T21:36:34.080Z,83.00
2022-12-25T21:39:04.128Z,82.93
2022-12-25T21:41:32.713Z,83.02
2022-12-25T21:44:00.118Z,82.74
2022-12-25T21:46:27.840Z,83.03
2022-12-25T21:48:55.124Z,82.39
2022-12-25T21:51:40.326Z,82.17
2022-12-25T21:54:07.493Z,82.07
2022-12-25T21:56:43.039Z,81.90
2022-12-25T21:59:12.584Z,81.44
2022-12-25T22:01:39.410Z,80.69
2022-12-25T22:04:08.342Z,80.37
2022-12-25T22:06:50.778Z,80.64
2022-12-25T22:09:18.415Z,80.63
2022-12-25T22:12:00.530Z,80.85
2022-12-25T22:14:52.715Z,80.66
2022-12-25T22:17:40.944Z,80.50
2022-12-25T22:20:10.835Z,80.57
2022-12-25T22:22:37.777Z,80.40
2022-12-25T22:25:05.732Z,80.55
2022-12-25T22:27:35.812Z,80.54
2022-12-25T22:30:02.577Z,80.31
2022-12-25T22:32:29.417Z,80.26
2022-12-25T22:34:56.210Z,80.32
2022-12-25T22:37:27.184Z,80.05
2022-12-25T22:39:53.911Z,80.16
2022-12-25T22:42:20.989Z,80.50
2022-12-25T22:44:47.787Z,80.52
2022-12-25T22:47:15.368Z,80.91
2022-12-25T22:49:42.137Z,81.23
2022-12-25T22:52:09.901Z,81.16
2022-12-25T22:54:37.256Z,80.97
2022-12-25T22:57:04.601Z,80.92
2022-12-25T22:59:32.909Z,81.20
2022-12-25T23:02:00.751Z,80.78
2022-12-25T23:04:28.326Z,80.69
2022-12-25T23:06:55.229Z,80.75
2022-12-25T23:09:27.501Z,80.87
2022-12-25T23:11:55.880Z,80.76
2022-12-25T23:14:39.064Z,80.50
2022-12-25T23:17:28.631Z,80.81
2022-12-25T23:20:11.343Z,80.42
2022-12-25T23:22:53.726Z,80.81
2022-12-25T23:25:35.946Z,80.73
2022-12-25T23:28:02.640Z,80.63
2022-12-25T23:30:29.313Z,80.71
2022-12-25T23:32:56.006Z,80.39
2022-12-25T23:35:22.704Z,80.36
2022-12-25T23:37:53.051Z,80.15
2022-12-25T23:40:20.040Z,79.86
2022-12-25T23:42:46.904Z,80.14
2022-12-25T23:45:13.881Z,80.12
2022-12-25T23:47:40.628Z,79.90
2022-12-25T23:50:07.592Z,79.91
2022-12-25T23:52:34.290Z,79.64
2022-12-25T23:55:01.122Z,79.56
2022-12-25T23:57:28.894Z,79.63
2022-12-25T23:59:55.604Z,79.40
